Time;durP1;ratioP1;P1;durP2;ratioP2;P2;SDS_P1;SDS_P2;PMS_P1;PMS_P2;Temp;Humidity;BMP_temperature;BMP_pressure;BME280_temperature;BME280_humidity;BME280_pressure;Samples;Min_cycle;Max_cycle;Signal;HPM_P1;HPM_P2
2021/12/21 00:00:46;;;;;;;11.45;9.20;;;-0.40;99.90;;;;;;5116270;28;20211;-78
2021/12/21 00:03:14;;;;;;;11.98;9.55;;;-0.50;99.90;;;;;;5115928;28;20284;-78
2021/12/21 00:05:42;;;;;;;15.82;10.75;;;-0.50;99.90;;;;;;5116593;28;20204;-79
2021/12/21 00:08:12;;;;;;;15.43;10.80;;;-0.50;99.90;;;;;;5116739;28;20200;-78
2021/12/21 00:10:42;;;;;;;9.55;8.45;;;-0.60;99.90;;;;;;5115959;28;20208;-78
2021/12/21 00:13:22;;;;;;;13.55;8.75;;;-0.50;99.90;;;;;;5114584;28;20256;-79
2021/12/21 00:15:57;;;;;;;10.25;9.18;;;-0.50;99.90;;;;;;5113779;28;20200;-79
2021/12/21 00:18:32;;;;;;;11.27;10.13;;;-0.50;99.90;;;;;;5112487;28;20216;-79
2021/12/21 00:21:05;;;;;;;9.82;8.43;;;-0.50;99.90;;;;;;5113183;28;20204;-79
2021/12/21 00:23:39;;;;;;;11.80;7.68;;;-0.50;99.90;;;;;;5112223;28;20223;-78
2021/12/21 00:26:08;;;;;;;13.35;9.40;;;-0.50;99.90;;;;;;5113165;28;20189;-78
2021/12/21 00:28:49;;;;;;;9.93;9.02;;;-0.50;99.90;;;;;;5114095;28;20203;-78
2021/12/21 00:31:17;;;;;;;16.15;9.90;;;-0.50;99.90;;;;;;5109714;28;20239;-79
2021/12/21 00:33:46;;;;;;;13.98;9.20;;;-0.50;99.90;;;;;;5108457;28;20224;-79
2021/12/21 00:36:14;;;;;;;10.98;8.43;;;-0.50;99.90;;;;;;5101696;28;20291;-79
2021/12/21 00:38:41;;;;;;;10.18;8.30;;;-0.50;99.90;;;;;;5101386;28;20573;-79
2021/12/21 00:41:08;;;;;;;10.27;7.43;;;-0.50;99.90;;;;;;5102263;28;20200;-79
2021/12/21 00:43:34;;;;;;;9.23;8.23;;;-0.50;99.90;;;;;;5101024;28;20220;-79
2021/12/21 00:46:01;;;;;;;6.65;6.03;;;-0.60;99.90;;;;;;5102215;28;20211;-79
2021/12/21 00:48:32;;;;;;;5.75;5.25;;;-0.60;99.90;;;;;;5101266;28;20197;-79
2021/12/21 00:51:01;;;;;;;8.88;5.65;;;-0.60;99.90;;;;;;5101429;28;20212;-79
2021/12/21 00:53:28;;;;;;;12.95;5.05;;;-0.70;99.90;;;;;;5101331;28;20240;-79
2021/12/21 00:55:55;;;;;;;9.10;5.30;;;-0.70;99.90;;;;;;5102204;28;20299;-79
2021/12/21 00:58:23;;;;;;;4.82;3.92;;;-0.70;99.90;;;;;;5101223;28;20220;-79
2021/12/21 01:00:50;;;;;;;4.85;3.88;;;-0.60;99.90;;;;;;5101981;28;20208;-79
2021/12/21 01:03:18;;;;;;;16.42;6.75;;;-0.60;99.90;;;;;;5101458;28;20224;-79
2021/12/21 01:05:52;;;;;;;6.88;5.15;;;-0.60;99.90;;;;;;5101667;28;20234;-79
2021/12/21 01:08:23;;;;;;;5.13;4.57;;;-0.60;99.90;;;;;;5100677;28;20283;-79
2021/12/21 01:11:07;;;;;;;3.70;3.30;;;-0.60;99.90;;;;;;5101317;28;20205;-80
2021/12/21 01:13:43;;;;;;;3.63;3.10;;;-0.60;99.90;;;;;;5101497;28;20231;-79
2021/12/21 01:16:26;;;;;;;6.03;4.53;;;-0.50;99.90;;;;;;5101325;28;20257;-79
2021/12/21 01:19:15;;;;;;;3.55;3.25;;;-0.50;99.90;;;;;;5101627;28;20215;-79
2021/12/21 01:21:54;;;;;;;3.38;3.05;;;-0.60;99.90;;;;;;5100463;28;20255;-79
2021/12/21 01:24:36;;;;;;;4.55;3.85;;;-0.50;99.90;;;;;;5101439;28;20227;-79
2021/12/21 01:27:15;;;;;;;4.65;4.07;;;-0.60;99.90;;;;;;5100749;28;20200;-79
2021/12/21 01:29:51;;;;;;;5.78;3.90;;;-0.60;99.90;;;;;;5102068;28;20207;-79
2021/12/21 01:32:27;;;;;;;3.70;3.45;;;-0.60;99.90;;;;;;5101228;28;20199;-79
2021/12/21 01:35:00;;;;;;;3.90;3.60;;;-0.50;99.90;;;;;;5101112;28;20311;-79
2021/12/21 01:37:40;;;;;;;7.30;4.07;;;-0.50;99.90;;;;;;5100699;28;20253;-80
2021/12/21 01:40:21;;;;;;;5.28;4.40;;;-0.50;99.90;;;;;;5101483;28;20211;-79
2021/12/21 01:43:10;;;;;;;5.03;4.20;;;-0.50;99.90;;;;;;5100191;28;20211;-79
2021/12/21 01:51:07;;;;;;;5.82;3.75;;;-0.40;99.90;;;;;;5049153;28;20231;-80
2021/12/21 01:53:36;;;;;;;5.43;3.35;;;-0.40;99.90;;;;;;5099948;28;20595;-79
2021/12/21 01:56:04;;;;;;;6.35;4.70;;;-0.40;99.90;;;;;;5100536;28;20200;-79
2021/12/21 01:58:33;;;;;;;4.43;3.88;;;-0.40;99.90;;;;;;5100761;28;20224;-79
2021/12/21 02:01:00;;;;;;;4.95;4.22;;;-0.40;99.90;;;;;;5100007;28;20212;-79
2021/12/21 02:03:27;;;;;;;8.52;7.05;;;-0.40;99.90;;;;;;5100614;28;20220;-78
2021/12/21 02:05:54;;;;;;;6.03;5.20;;;-0.40;99.90;;;;;;5100404;28;20208;-80
2021/12/21 02:08:21;;;;;;;7.72;5.25;;;-0.40;99.90;;;;;;5100306;28;20203;-79
2021/12/21 02:10:49;;;;;;;4.72;4.28;;;-0.40;99.90;;;;;;5100924;28;20215;-79
2021/12/21 02:13:16;;;;;;;6.30;5.65;;;-0.40;99.90;;;;;;5100206;28;20716;-79
2021/12/21 02:15:43;;;;;;;5.35;4.82;;;-0.50;99.90;;;;;;5100001;28;20232;-79
2021/12/21 02:21:17;;;;;;;6.13;4.75;;;-0.50;99.90;;;;;;5063854;28;20283;-79
2021/12/21 02:23:44;;;;;;;9.98;6.15;;;-0.60;99.90;;;;;;5079970;28;20311;-79
2021/12/21 02:26:23;;;;;;;6.65;5.45;;;-0.60;99.90;;;;;;5081818;28;20249;-79
2021/12/21 02:31:35;;;;;;;5.85;5.35;;;-0.70;99.90;;;;;;5090705;28;20313;-79
2021/12/21 02:34:02;;;;;;;8.23;5.65;;;-0.60;99.90;;;;;;5100085;28;20247;-79
2021/12/21 02:36:30;;;;;;;5.28;4.85;;;-0.70;99.90;;;;;;5099977;28;20207;-79
2021/12/21 02:38:57;;;;;;;8.90;5.18;;;-0.70;99.90;;;;;;5101609;28;20220;-80
2021/12/21 02:41:25;;;;;;;6.68;5.15;;;-0.70;99.90;;;;;;5110019;28;20203;-80
2021/12/21 02:43:53;;;;;;;11.43;5.78;;;-0.70;99.90;;;;;;5110666;28;20254;-79
2021/12/21 02:46:20;;;;;;;10.88;6.30;;;-0.80;99.90;;;;;;5104785;28;20219;-79
2021/12/21 02:48:47;;;;;;;9.60;6.05;;;-0.80;99.90;;;;;;5105273;28;20207;-79
2021/12/21 02:51:13;;;;;;;9.10;5.60;;;-0.80;99.90;;;;;;5103895;28;20217;-79
2021/12/21 02:53:44;;;;;;;14.07;6.20;;;-0.80;99.90;;;;;;5103930;28;20235;-79
2021/12/21 02:56:11;;;;;;;5.20;4.75;;;-0.80;99.90;;;;;;5104413;28;20250;-79
2021/12/21 02:58:38;;;;;;;14.18;6.22;;;-0.80;99.90;;;;;;5104420;28;20235;-79
2021/12/21 03:01:05;;;;;;;8.02;5.93;;;-0.80;99.90;;;;;;5103505;28;20703;-80
2021/12/21 03:03:33;;;;;;;10.82;5.15;;;-0.90;99.90;;;;;;5104859;28;20220;-79
2021/12/21 03:06:00;;;;;;;7.28;6.35;;;-0.90;99.90;;;;;;5103809;28;20213;-79
2021/12/21 03:08:37;;;;;;;7.20;6.53;;;-0.90;99.90;;;;;;5104140;28;20296;-79
2021/12/21 03:11:12;;;;;;;8.73;5.97;;;-1.00;99.90;;;;;;5102890;28;20204;-79
2021/12/21 03:14:03;;;;;;;7.93;6.80;;;-1.00;99.90;;;;;;5103762;28;20224;-79
2021/12/21 03:16:34;;;;;;;9.55;5.68;;;-1.00;99.90;;;;;;5141347;22;20220;-80
2021/12/21 03:19:01;;;;;;;6.80;6.15;;;-1.00;99.90;;;;;;5114978;28;20231;-81
2021/12/21 03:21:28;;;;;;;10.73;6.95;;;-1.00;99.90;;;;;;5094760;28;20287;-80
2021/12/21 03:23:55;;;;;;;6.85;6.22;;;-1.00;99.90;;;;;;5096002;28;20215;-79
2021/12/21 03:26:24;;;;;;;11.80;6.25;;;-1.00;99.90;;;;;;5111562;28;20216;-80
2021/12/21 03:28:51;;;;;;;13.40;7.15;;;-1.00;99.90;;;;;;5111827;28;20220;-81
2021/12/21 03:31:19;;;;;;;7.88;6.18;;;-1.00;99.90;;;;;;5114373;28;20204;-77
2021/12/21 03:33:45;;;;;;;10.07;6.28;;;-1.10;99.90;;;;;;5119011;28;20212;-78
2021/12/21 03:36:12;;;;;;;9.65;6.25;;;-1.10;99.90;;;;;;5110764;28;20231;-81
2021/12/21 03:38:41;;;;;;;6.05;5.35;;;-1.10;99.90;;;;;;5106141;28;20231;-82
2021/12/21 03:41:12;;;;;;;9.90;7.03;;;-1.10;99.90;;;;;;5105776;28;20220;-79
2021/12/21 03:43:40;;;;;;;23.48;6.55;;;-1.10;99.90;;;;;;5105957;28;20211;-81
2021/12/21 03:46:10;;;;;;;9.43;7.35;;;-1.20;99.90;;;;;;5103619;28;20216;-80
2021/12/21 03:48:40;;;;;;;8.05;6.18;;;-1.20;99.90;;;;;;5099893;28;20240;-80
2021/12/21 03:51:07;;;;;;;11.65;6.85;;;-1.20;99.90;;;;;;5098748;28;20285;-80
2021/12/21 03:53:34;;;;;;;6.10;5.50;;;-1.20;99.90;;;;;;5103211;28;20205;-80
2021/12/21 03:56:18;;;;;;;6.90;5.47;;;-1.20;99.90;;;;;;5111065;28;20216;-80
2021/12/21 03:58:46;;;;;;;5.97;5.43;;;-1.20;99.90;;;;;;5103597;28;20648;-80
2021/12/21 04:01:13;;;;;;;6.88;5.00;;;-1.20;99.90;;;;;;5098618;28;20200;-80
2021/12/21 04:03:41;;;;;;;10.15;6.05;;;-1.20;99.90;;;;;;5099361;28;20211;-80
2021/12/21 04:06:08;;;;;;;7.85;7.10;;;-1.20;99.90;;;;;;5099155;28;20216;-80
2021/12/21 04:08:35;;;;;;;7.47;6.03;;;-1.20;99.90;;;;;;5099435;28;20200;-80
2021/12/21 04:11:02;;;;;;;6.00;5.40;;;-1.30;99.90;;;;;;5098320;28;20204;-81
2021/12/21 04:13:29;;;;;;;5.38;4.90;;;-1.30;99.90;;;;;;5099466;28;20207;-80
2021/12/21 04:16:00;;;;;;;8.45;6.25;;;-1.30;99.90;;;;;;5098636;28;20237;-80
2021/12/21 04:18:27;;;;;;;6.95;5.63;;;-1.30;99.90;;;;;;5099315;28;20235;-80
2021/12/21 04:20:54;;;;;;;10.02;6.57;;;-1.30;99.90;;;;;;5097641;28;20203;-80
2021/12/21 04:23:21;;;;;;;6.07;5.43;;;-1.30;99.90;;;;;;5099102;28;20215;-80
2021/12/21 04:25:48;;;;;;;7.45;5.50;;;-1.40;99.90;;;;;;5098771;28;20793;-81
2021/12/21 04:28:14;;;;;;;8.93;5.55;;;-1.40;99.90;;;;;;5096717;28;20200;-79
2021/12/21 04:30:41;;;;;;;9.93;6.10;;;-1.40;99.90;;;;;;5094666;28;20200;-80
2021/12/21 04:33:09;;;;;;;9.73;6.00;;;-1.40;99.90;;;;;;5095095;28;20212;-80
2021/12/21 04:35:36;;;;;;;9.55;6.32;;;-1.40;99.90;;;;;;5094747;28;20212;-80
2021/12/21 04:38:19;;;;;;;8.88;5.70;;;-1.40;99.90;;;;;;5094975;28;20217;-79
2021/12/21 04:40:48;;;;;;;7.88;6.40;;;-1.40;99.90;;;;;;5094964;28;20238;-80
2021/12/21 04:43:15;;;;;;;7.68;6.50;;;-1.40;99.90;;;;;;5094796;28;20208;-79
2021/12/21 04:45:42;;;;;;;9.65;6.75;;;-1.40;99.90;;;;;;5094700;28;20743;-80
2021/12/21 04:48:10;;;;;;;6.60;5.38;;;-1.40;99.90;;;;;;5095065;28;20200;-80
2021/12/21 04:50:37;;;;;;;5.80;5.13;;;-1.40;99.90;;;;;;5094480;28;20212;-80
2021/12/21 04:53:04;;;;;;;6.93;6.00;;;-1.40;99.90;;;;;;5095309;28;20212;-80
2021/12/21 04:55:30;;;;;;;7.20;5.55;;;-1.40;99.90;;;;;;5094882;28;20606;-80
2021/12/21 04:57:57;;;;;;;8.48;5.47;;;-1.40;99.90;;;;;;5094864;28;20235;-80
2021/12/21 05:00:24;;;;;;;8.25;6.50;;;-1.40;99.90;;;;;;5094172;28;20200;-80
2021/12/21 05:02:51;;;;;;;8.68;6.03;;;-1.40;99.90;;;;;;5094557;28;20211;-80
2021/12/21 05:05:19;;;;;;;6.32;5.80;;;-1.40;99.90;;;;;;5095905;28;20212;-81
2021/12/21 05:07:51;;;;;;;7.30;6.20;;;-1.40;99.90;;;;;;5098950;28;20212;-80
2021/12/21 05:10:18;;;;;;;8.35;7.25;;;-1.40;99.90;;;;;;5102369;28;20207;-80
2021/12/21 05:12:46;;;;;;;10.38;7.47;;;-1.40;99.90;;;;;;5100001;28;20649;-80
2021/12/21 05:15:13;;;;;;;7.95;7.15;;;-1.40;99.90;;;;;;5094332;28;20290;-79
2021/12/21 05:17:40;;;;;;;12.45;6.53;;;-1.40;99.90;;;;;;5094621;28;20401;-80
2021/12/21 05:20:07;;;;;;;7.55;6.95;;;-1.50;99.90;;;;;;5093644;28;20673;-80
2021/12/21 05:22:35;;;;;;;10.63;5.90;;;-1.50;99.90;;;;;;5094198;28;20207;-81
2021/12/21 05:25:03;;;;;;;10.50;7.32;;;-1.50;99.90;;;;;;5094150;28;20628;-80
2021/12/21 05:27:29;;;;;;;6.53;6.03;;;-1.50;99.90;;;;;;5094393;28;20219;-79
2021/12/21 05:29:56;;;;;;;9.10;6.00;;;-1.50;99.90;;;;;;5094320;28;20208;-80
2021/12/21 05:32:23;;;;;;;8.48;5.72;;;-1.50;99.90;;;;;;5093813;28;20600;-80
2021/12/21 05:34:50;;;;;;;6.95;6.25;;;-1.50;99.90;;;;;;5094226;28;20208;-79
2021/12/21 05:37:16;;;;;;;6.10;5.50;;;-1.50;99.90;;;;;;5093694;28;20208;-79
2021/12/21 05:39:55;;;;;;;5.55;4.97;;;-1.50;99.90;;;;;;5093936;28;20232;-79
2021/12/21 05:42:22;;;;;;;8.80;7.75;;;-1.50;99.90;;;;;;5093729;28;20259;-79
2021/12/21 05:44:50;;;;;;;6.97;6.28;;;-1.50;99.90;;;;;;5093596;28;20204;-80
2021/12/21 05:47:17;;;;;;;11.77;6.60;;;-1.50;99.90;;;;;;5093467;28;20266;-79
2021/12/21 05:49:44;;;;;;;9.07;5.65;;;-1.50;99.90;;;;;;5093723;28;20200;-79
2021/12/21 05:52:11;;;;;;;5.95;5.45;;;-1.50;99.90;;;;;;5093502;28;20208;-80
2021/12/21 05:54:38;;;;;;;6.75;6.15;;;-1.50;99.90;;;;;;5093955;28;20204;-79
2021/12/21 05:57:06;;;;;;;8.45;6.47;;;-1.50;99.90;;;;;;5093193;28;20209;-79
2021/12/21 05:59:35;;;;;;;7.32;6.63;;;-1.50;99.90;;;;;;5093363;28;20242;-80
2021/12/21 06:02:02;;;;;;;7.50;6.68;;;-1.50;99.90;;;;;;5093536;28;20692;-81
2021/12/21 06:04:29;;;;;;;10.75;6.53;;;-1.50;99.90;;;;;;5093836;28;20239;-80
2021/12/21 06:06:55;;;;;;;8.98;6.15;;;-1.60;99.90;;;;;;5094728;28;20228;-80
2021/12/21 06:09:22;;;;;;;6.55;5.88;;;-1.60;99.90;;;;;;5093009;28;20207;-82
2021/12/21 06:12:00;;;;;;;7.60;5.80;;;-1.60;99.90;;;;;;5093335;28;20218;-79
2021/12/21 06:14:51;;;;;;;9.68;7.00;;;-1.60;99.90;;;;;;5092613;28;20199;-79
2021/12/21 06:23:03;;;;;;;9.07;6.07;;;-1.80;99.90;;;;;;5093893;28;20191;-80
2021/12/21 06:25:38;;;;;;;6.90;6.13;;;-1.80;99.90;;;;;;5094019;28;20307;-80
2021/12/21 06:28:07;;;;;;;11.15;7.55;;;-1.70;99.90;;;;;;5093909;28;20188;-79
2021/12/21 06:30:38;;;;;;;9.77;7.63;;;-1.70;99.90;;;;;;5092934;28;20204;-80
2021/12/21 06:33:06;;;;;;;6.75;5.40;;;-1.70;99.90;;;;;;5092993;28;20192;-79
2021/12/21 06:35:33;;;;;;;7.85;6.97;;;-1.70;99.90;;;;;;5092835;28;20238;-79
2021/12/21 06:38:01;;;;;;;11.90;6.07;;;-1.70;99.90;;;;;;5093256;28;20216;-79
2021/12/21 06:40:28;;;;;;;7.80;6.60;;;-1.70;99.90;;;;;;5092852;28;20215;-79
2021/12/21 06:42:55;;;;;;;14.35;6.72;;;-1.70;99.90;;;;;;5092232;28;20204;-79
2021/12/21 06:45:30;;;;;;;8.90;6.47;;;-1.70;99.90;;;;;;5098916;28;20246;-81
2021/12/21 06:53:28;;;;;;;9.43;8.52;;;-1.80;99.90;;;;;;5103183;28;20199;-80
2021/12/21 06:55:55;;;;;;;11.35;7.75;;;-1.80;99.90;;;;;;5092943;28;20224;-80
2021/12/21 06:58:22;;;;;;;13.05;8.73;;;-1.80;99.90;;;;;;5092794;28;20228;-79
2021/12/21 07:00:52;;;;;;;8.73;7.80;;;-1.70;99.90;;;;;;5092764;28;20200;-80
2021/12/21 07:03:20;;;;;;;10.10;8.80;;;-1.70;99.90;;;;;;5092397;28;20204;-80
2021/12/21 07:05:48;;;;;;;9.30;7.47;;;-1.70;99.90;;;;;;5092171;28;20220;-80
2021/12/21 07:08:18;;;;;;;10.38;8.32;;;-1.70;99.90;;;;;;5092271;28;20200;-80
2021/12/21 07:10:53;;;;;;;11.07;8.70;;;-1.80;99.90;;;;;;5091684;28;20240;-79
2021/12/21 07:18:52;;;;;;;11.63;10.50;;;-1.90;99.90;;;;;;5088571;28;20239;-79
2021/12/21 07:21:18;;;;;;;17.08;8.98;;;-1.90;99.90;;;;;;5083881;28;20208;-79
2021/12/21 07:23:45;;;;;;;10.43;8.75;;;-1.90;99.90;;;;;;5085058;28;20676;-79
2021/12/21 07:26:12;;;;;;;8.80;8.00;;;-1.80;99.90;;;;;;5093905;28;20227;-80
2021/12/21 07:28:39;;;;;;;11.60;10.10;;;-1.80;99.90;;;;;;5092532;28;20221;-79
2021/12/21 07:31:05;;;;;;;14.48;10.40;;;-1.80;99.90;;;;;;5089906;28;20555;-80
2021/12/21 07:33:32;;;;;;;13.88;10.60;;;-1.80;99.90;;;;;;5088920;28;20542;-80
2021/12/21 07:36:00;;;;;;;14.73;10.00;;;-1.90;99.90;;;;;;5091794;28;20240;-80
2021/12/21 07:38:30;;;;;;;12.82;11.07;;;-1.80;99.90;;;;;;5086035;28;20203;-79
2021/12/21 07:40:57;;;;;;;12.18;9.77;;;-1.80;99.90;;;;;;5079991;28;20204;-78
2021/12/21 07:43:24;;;;;;;9.82;8.85;;;-1.70;99.90;;;;;;5094838;28;20193;-78
2021/12/21 07:45:51;;;;;;;10.68;8.32;;;-1.70;99.90;;;;;;5095847;28;20232;-80
2021/12/21 07:48:18;;;;;;;11.27;9.82;;;-1.60;99.90;;;;;;5097871;28;20200;-80
2021/12/21 07:50:46;;;;;;;11.13;9.82;;;-1.50;99.90;;;;;;5096584;28;20200;-80
2021/12/21 07:53:15;;;;;;;8.77;7.57;;;-1.50;99.90;;;;;;5096346;28;20196;-81
2021/12/21 07:55:42;;;;;;;9.88;8.15;;;-1.40;99.90;;;;;;5098749;28;20235;-81
2021/12/21 07:58:09;;;;;;;10.90;9.00;;;-1.40;99.90;;;;;;5091169;28;20204;-82
2021/12/21 08:00:36;;;;;;;8.98;7.57;;;-1.30;99.90;;;;;;5105722;28;20212;-82
2021/12/21 08:03:03;;;;;;;12.85;9.13;;;-1.20;99.90;;;;;;5106369;28;20207;-82
2021/12/21 08:05:33;;;;;;;11.38;8.98;;;-1.20;99.90;;;;;;5096204;28;20220;-80
2021/12/21 08:08:09;;;;;;;9.30;8.23;;;-1.10;99.90;;;;;;5098231;28;20212;-83
2021/12/21 08:10:45;;;;;;;10.57;9.18;;;-1.10;99.90;;;;;;5106530;28;20193;-80
2021/12/21 08:13:12;;;;;;;11.25;9.20;;;-1.00;99.90;;;;;;5113286;28;20211;-82
2021/12/21 08:15:39;;;;;;;10.18;9.35;;;-0.90;99.90;;;;;;5109927;28;20626;-82
2021/12/21 08:18:06;;;;;;;12.60;9.38;;;-0.90;99.90;;;;;;5104825;28;20211;-82
2021/12/21 08:20:33;;;;;;;17.13;10.35;;;-0.80;99.90;;;;;;5114913;28;20234;-78
2021/12/21 08:23:00;;;;;;;12.48;10.85;;;-0.80;99.90;;;;;;5115857;28;20210;-82
2021/12/21 08:25:28;;;;;;;17.05;11.63;;;-0.70;99.90;;;;;;5108508;28;20224;-83
2021/12/21 08:27:57;;;;;;;10.02;8.52;;;-0.50;99.90;;;;;;5104402;28;20208;-81
2021/12/21 08:30:25;;;;;;;12.52;8.73;;;-0.50;99.90;;;;;;5103206;28;20209;-80
2021/12/21 08:32:53;;;;;;;12.40;9.00;;;-0.40;99.90;;;;;;5101183;28;20200;-82
2021/12/21 08:35:20;;;;;;;12.30;9.25;;;-0.40;99.90;;;;;;5099719;28;20224;-82
2021/12/21 08:37:51;;;;;;;13.75;9.27;;;-0.30;99.90;;;;;;5098869;28;20212;-81
2021/12/21 08:40:19;;;;;;;8.77;7.90;;;-0.40;99.90;;;;;;5099155;28;20224;-81
2021/12/21 08:42:48;;;;;;;11.98;9.43;;;-0.30;99.90;;;;;;5101294;28;20209;-82
2021/12/21 08:45:16;;;;;;;11.70;9.70;;;-0.40;99.90;;;;;;5101980;28;20224;-82
2021/12/21 08:47:43;;;;;;;8.77;7.80;;;-0.50;99.90;;;;;;5100067;28;20301;-83
2021/12/21 08:50:12;;;;;;;10.13;8.95;;;-0.40;99.90;;;;;;5099987;28;20577;-82
2021/12/21 08:52:45;;;;;;;10.30;9.25;;;-0.20;99.90;;;;;;5102480;28;20200;-82
2021/12/21 08:55:12;;;;;;;9.07;8.20;;;-0.30;99.90;;;;;;5102529;28;20578;-81
2021/12/21 08:57:39;;;;;;;10.93;8.77;;;-0.30;99.90;;;;;;5102770;28;20215;-83
2021/12/21 09:00:08;;;;;;;11.25;8.18;;;-0.20;99.90;;;;;;5100703;28;20238;-79
2021/12/21 09:02:37;;;;;;;8.18;6.35;;;-0.10;99.90;;;;;;5101831;28;20692;-82
2021/12/21 09:05:11;;;;;;;7.45;6.75;;;0.00;99.90;;;;;;5100545;28;20228;-82
2021/12/21 09:07:38;;;;;;;7.72;6.93;;;0.00;99.90;;;;;;5100258;28;20200;-82
2021/12/21 09:10:07;;;;;;;8.45;6.65;;;0.00;99.90;;;;;;5099131;28;20208;-82
2021/12/21 09:12:34;;;;;;;6.53;5.90;;;0.10;99.90;;;;;;5100498;28;20521;-82
2021/12/21 09:17:36;;;;;;;8.13;7.43;;;0.30;99.90;;;;;;5071276;28;20209;-80
2021/12/21 09:20:04;;;;;;;8.70;7.18;;;0.30;99.90;;;;;;5076033;28;20604;-79
2021/12/21 09:22:31;;;;;;;6.97;6.30;;;0.40;99.90;;;;;;5076162;28;20197;-80
2021/12/21 09:24:59;;;;;;;7.40;6.65;;;0.40;99.90;;;;;;5075175;28;20205;-80
2021/12/21 09:27:26;;;;;;;6.63;5.93;;;0.50;99.90;;;;;;5055341;28;20203;-79
2021/12/21 09:29:53;;;;;;;6.68;5.53;;;0.50;99.90;;;;;;5055575;28;20613;-79
2021/12/21 09:32:20;;;;;;;6.20;5.65;;;0.50;99.90;;;;;;5056283;28;20214;-80
2021/12/21 09:34:50;;;;;;;7.55;5.93;;;0.60;99.90;;;;;;5062097;28;20209;-84
2021/12/21 09:37:20;;;;;;;6.28;5.32;;;0.60;99.90;;;;;;5056582;28;20226;-81
2021/12/21 09:39:49;;;;;;;7.13;6.43;;;0.60;99.90;;;;;;5071779;28;20225;-80
2021/12/21 09:42:18;;;;;;;9.05;6.05;;;0.70;99.90;;;;;;5068369;28;20667;-80
2021/12/21 09:44:46;;;;;;;5.65;5.20;;;0.70;99.90;;;;;;5067137;28;20194;-80
2021/12/21 09:47:16;;;;;;;6.43;5.72;;;0.80;99.90;;;;;;5066659;28;20252;-80
2021/12/21 09:49:44;;;;;;;7.05;6.35;;;0.90;99.90;;;;;;5067804;28;20205;-85
2021/12/21 09:52:29;;;;;;;6.63;6.13;;;0.90;99.90;;;;;;5071697;28;20600;-84
2021/12/21 09:54:56;;;;;;;6.40;5.55;;;1.00;99.90;;;;;;5070273;28;20207;-79
2021/12/21 09:57:23;;;;;;;6.03;5.43;;;1.20;99.90;;;;;;5071695;28;20281;-81
2021/12/21 09:59:52;;;;;;;5.50;4.90;;;1.20;99.90;;;;;;5069628;28;20229;-81
2021/12/21 10:02:21;;;;;;;6.20;5.53;;;1.30;99.90;;;;;;5060222;28;20206;-80
2021/12/21 10:04:50;;;;;;;6.38;5.22;;;1.40;99.90;;;;;;5058472;28;20205;-80
2021/12/21 10:07:22;;;;;;;8.13;6.20;;;1.50;99.90;;;;;;5067561;28;20266;-81
2021/12/21 10:09:53;;;;;;;9.68;6.18;;;1.60;99.90;;;;;;5065170;28;20210;-81
2021/12/21 10:12:29;;;;;;;8.20;5.57;;;1.70;99.90;;;;;;5069969;28;20199;-80
2021/12/21 10:15:03;;;;;;;8.32;7.72;;;1.80;99.90;;;;;;5068090;28;20201;-80
2021/12/21 10:17:33;;;;;;;7.28;5.60;;;1.90;99.90;;;;;;5072536;28;20277;-79
2021/12/21 10:23:24;;;;;;;7.63;5.45;;;2.10;99.90;;;;;;5070720;28;20237;-84
2021/12/21 10:26:04;;;;;;;10.35;8.27;;;2.40;99.90;;;;;;5072528;28;20209;-84
2021/12/21 10:28:34;;;;;;;9.85;6.65;;;2.50;99.90;;;;;;5068683;28;20672;-80
2021/12/21 10:31:04;;;;;;;7.38;6.38;;;2.60;99.90;;;;;;5068958;28;20244;-79
2021/12/21 10:33:31;;;;;;;7.47;6.40;;;2.70;99.90;;;;;;5069239;28;20215;-80
2021/12/21 10:36:01;;;;;;;10.32;7.10;;;2.90;99.90;;;;;;5066050;28;20214;-79
2021/12/21 10:38:32;;;;;;;5.60;5.10;;;3.20;99.90;;;;;;5068281;28;20207;-79
2021/12/21 10:41:07;;;;;;;6.40;5.63;;;3.60;99.90;;;;;;5065921;28;20241;-80
2021/12/21 10:43:35;;;;;;;7.35;6.32;;;4.10;99.90;;;;;;5055389;28;20201;-82
2021/12/21 10:46:02;;;;;;;6.32;5.32;;;4.70;99.90;;;;;;5058980;28;20236;-82
2021/12/21 10:48:30;;;;;;;5.45;4.97;;;5.10;99.90;;;;;;5067485;28;20202;-81
2021/12/21 10:50:57;;;;;;;6.45;5.57;;;5.40;99.60;;;;;;5063011;28;20206;-81
2021/12/21 10:53:25;;;;;;;10.02;7.07;;;5.90;99.90;;;;;;5054548;28;20233;-83
2021/12/21 10:56:04;;;;;;;6.15;5.57;;;6.70;99.90;;;;;;5054547;28;20228;-82
2021/12/21 10:58:31;;;;;;;5.90;5.28;;;7.20;97.80;;;;;;5053791;28;20201;-80
2021/12/21 11:01:00;;;;;;;6.95;6.32;;;7.80;95.10;;;;;;5056611;28;20225;-81
2021/12/21 11:03:33;;;;;;;9.50;5.25;;;8.40;94.70;;;;;;5060074;28;20202;-81
2021/12/21 11:06:16;;;;;;;5.60;5.10;;;9.20;93.50;;;;;;5059271;28;20253;-81
2021/12/21 11:08:44;;;;;;;5.28;4.90;;;10.00;91.80;;;;;;5057476;28;20231;-81
2021/12/21 11:11:27;;;;;;;5.13;4.63;;;11.00;89.90;;;;;;5057763;28;20201;-81
2021/12/21 11:14:01;;;;;;;5.13;4.70;;;12.10;85.60;;;;;;5057186;28;20508;-83
2021/12/21 11:16:36;;;;;;;5.93;5.37;;;13.00;79.30;;;;;;5064783;28;20483;-78
2021/12/21 11:19:04;;;;;;;6.17;4.80;;;14.20;75.90;;;;;;5073406;28;20435;-80
2021/12/21 11:21:34;;;;;;;4.83;4.43;;;15.20;72.60;;;;;;5074255;28;20476;-80
2021/12/21 11:24:03;;;;;;;7.80;6.03;;;16.20;67.70;;;;;;5071963;28;20471;-81
2021/12/21 11:26:33;;;;;;;6.13;5.30;;;16.80;61.00;;;;;;5065004;28;20547;-79
2021/12/21 11:29:04;;;;;;;5.23;4.70;;;17.10;59.00;;;;;;5061696;28;20468;-79
2021/12/21 11:31:33;;;;;;;4.37;4.00;;;17.40;57.70;;;;;;5065076;28;20442;-81
2021/12/21 11:34:01;;;;;;;4.53;4.10;;;18.00;55.60;;;;;;5058418;28;20459;-81
2021/12/21 11:39:18;;;;;;;4.40;3.97;;;19.30;53.30;;;;;;5048058;28;20475;-79
2021/12/21 11:41:46;;;;;;;4.53;4.10;;;19.70;49.20;;;;;;5057996;28;20491;-79
2021/12/21 11:44:20;;;;;;;5.50;4.07;;;19.60;49.90;;;;;;5061753;28;20448;-80
2021/12/21 11:46:55;;;;;;;4.50;4.10;;;19.40;49.70;;;;;;5072833;28;20466;-79
2021/12/21 11:49:30;;;;;;;5.57;4.53;;;19.50;49.20;;;;;;5072805;28;20451;-79
2021/12/21 11:52:14;;;;;;;6.23;4.60;;;19.60;48.70;;;;;;5075852;28;20431;-84
2021/12/21 11:57:38;;;;;;;3.80;3.33;;;19.30;47.30;;;;;;5234976;22;20865;-79
2021/12/21 12:00:12;;;;;;;5.63;5.13;;;19.30;48.00;;;;;;5074213;28;20439;-82
2021/12/21 12:02:39;;;;;;;4.13;3.73;;;19.20;48.00;;;;;;5073256;28;20442;-79
2021/12/21 12:05:21;;;;;;;4.27;3.87;;;19.00;46.70;;;;;;5069718;28;20451;-78
2021/12/21 12:07:59;;;;;;;4.60;4.20;;;19.20;47.10;;;;;;5071338;28;21010;-80
2021/12/21 12:10:27;;;;;;;4.57;4.00;;;19.50;47.00;;;;;;5045263;28;20494;-80
2021/12/21 12:12:55;;;;;;;5.83;5.33;;;19.60;46.00;;;;;;5044657;28;20452;-81
2021/12/21 12:15:22;;;;;;;5.10;4.70;;;19.90;45.80;;;;;;5063093;28;20478;-83
2021/12/21 12:17:50;;;;;;;4.83;4.37;;;20.30;45.60;;;;;;5061760;28;20452;-82
2021/12/21 12:20:27;;;;;;;4.50;3.93;;;20.10;44.30;;;;;;5057986;28;20456;-84
2021/12/21 12:23:05;;;;;;;5.20;4.80;;;20.60;45.00;;;;;;5063879;28;20440;-81
2021/12/21 12:25:32;;;;;;;4.70;4.30;;;21.10;44.20;;;;;;5258167;23;21487;-78
2021/12/21 12:28:01;;;;;;;4.73;4.33;;;21.50;43.30;;;;;;5074668;28;20468;-79
2021/12/21 12:30:29;;;;;;;4.87;4.47;;;21.80;42.70;;;;;;5083650;28;21007;-79
2021/12/21 12:33:06;;;;;;;5.40;4.37;;;21.90;41.30;;;;;;5087311;28;20424;-80
2021/12/21 12:35:35;;;;;;;4.87;4.40;;;22.10;41.30;;;;;;5072056;28;20560;-80
2021/12/21 12:38:04;;;;;;;5.00;4.60;;;21.60;40.30;;;;;;5057943;28;20459;-80
2021/12/21 12:40:34;;;;;;;5.00;4.53;;;21.60;40.40;;;;;;5057120;28;20444;-80
2021/12/21 12:43:07;;;;;;;3.80;3.50;;;20.90;40.60;;;;;;5057614;28;20462;-80
2021/12/21 12:45:36;;;;;;;4.53;4.23;;;21.10;40.80;;;;;;5053227;28;20471;-84
2021/12/21 12:48:04;;;;;;;4.83;4.40;;;21.30;40.70;;;;;;5058648;28;20459;-80
2021/12/21 12:50:37;;;;;;;4.60;4.30;;;21.50;40.60;;;;;;5067534;28;20496;-79
2021/12/21 12:53:08;;;;;;;4.90;4.43;;;21.60;40.30;;;;;;5066592;28;20460;-79
2021/12/21 12:55:39;;;;;;;7.20;4.43;;;21.60;39.80;;;;;;5068289;28;20471;-79
2021/12/21 12:58:15;;;;;;;5.90;4.07;;;21.30;39.90;;;;;;5073286;28;20454;-80
2021/12/21 13:00:44;;;;;;;4.40;4.10;;;21.30;40.00;;;;;;5065160;28;20464;-80
2021/12/21 13:03:14;;;;;;;4.87;4.47;;;20.90;39.60;;;;;;5076672;28;20539;-81
2021/12/21 13:05:52;;;;;;;4.57;4.27;;;20.30;38.90;;;;;;5075633;28;20491;-81
2021/12/21 13:08:22;;;;;;;4.53;3.90;;;19.40;40.50;;;;;;5073964;28;20433;-85
2021/12/21 13:10:51;;;;;;;4.67;4.30;;;18.90;41.00;;;;;;5067988;28;20502;-80
2021/12/21 13:13:38;;;;;;;5.40;4.90;;;18.20;41.40;;;;;;5075361;28;20452;-84
2021/12/21 13:16:06;;;;;;;4.60;4.10;;;17.60;42.00;;;;;;5072519;28;20474;-80
2021/12/21 13:18:41;;;;;;;5.10;4.60;;;17.50;43.10;;;;;;5073606;28;20440;-81
2021/12/21 13:21:18;;;;;;;4.20;3.90;;;17.30;43.30;;;;;;5073166;28;20475;-81
2021/12/21 13:23:47;;;;;;;6.67;3.93;;;17.10;43.80;;;;;;5074090;28;20434;-80
2021/12/21 13:26:14;;;;;;;4.60;4.30;;;17.10;43.90;;;;;;5068160;28;20485;-80
2021/12/21 13:28:49;;;;;;;4.23;3.70;;;17.00;44.00;;;;;;5069462;28;20463;-80
2021/12/21 13:31:19;;;;;;;5.50;4.47;;;15.80;44.20;;;;;;5069160;28;20471;-86
2021/12/21 13:33:51;;;;;;;5.37;4.80;;;15.80;45.60;;;;;;5064620;28;20444;-80
2021/12/21 13:36:19;;;;;;;5.67;5.17;;;15.70;45.10;;;;;;5073830;28;20479;-82
2021/12/21 13:38:46;;;;;;;5.03;4.53;;;15.00;46.10;;;;;;5073159;28;20463;-80